Observations for SIOUX FALLS FOSS, SD (FSD)

KFSD 200656Z AUTO 28010KT 3SM BR OVC003 00/M01 A3015 RMK AO2 SLP221 T00001006 $ 
KFSD 200610Z AUTO 29011KT 2SM BR OVC002 00/M01 A3016
KFSD 200610Z AUTO 29011KT 2SM BR OVC002 00/M01 A3016 RMK AO2 T00001006 $
KFSD 200556Z AUTO 27007KT 1 1/2SM BR OVC002 00/00 A3017 RMK AO2 SLP228 I1000 I6000 T00000000 10061 20000 401110000 58015 $  
KFSD 200534Z AUTO 29009KT 1SM BR VV002 00/M01 A3018 RMK AO2 I1000 T00001006 RVRNO $
KFSD 200518Z AUTO 28006KT 3/4SM BR VV002 00/M01 A3019
KFSD 200518Z AUTO 28006KT 3/4SM BR VV002 00/M01 A3019 RMK AO2 I1000 T00001006 RVRNO $
KFSD 200456Z 28008KT 1SM BR VV002 00/M01 A3019 RMK AO2 SLP235 LAST T00001006 RVRNO $
KFSD 200356Z 31007KT 1SM BR OVC002 00/M01 A3020 RMK AO2 SFC VIS 1 1/4 SLP242 T00001006 $
KFSD 200327Z 30006KT 1 1/2SM BR OVC002 00/M01 A3021 RMK AO2 T00001006 $
KFSD 200256Z 30012KT 1SM BR OVC002 01/00 A3021 RMK AO2 SFC VIS 1 1/4 SLP244 T00060000 50012 $   
KFSD 200156Z 30013KT 1SM BR OVC003 01/M01 A3022 RMK AO2 SLP248 T00061006 RVRNO $
KFSD 200133Z 31016KT 2SM BR OVC003 01/00 A3022 RMK AO2 T00110000 $
KFSD 200139Z 31013G21KT 1SM BR OVC003 01/M01 A3022 RMK AO2 T00061006 RVRNO $
KFSD 200109Z 31013KT 9SM BKN006 02/00 A3020 RMK AO2 T00170000
KFSD 200122Z 31015KT 7SM OVC004 02/01 A3021 RMK AO2 T00170006
KFSD 200056Z 29009KT 10SM FEW020 03/01 A3019 RMK AO2 SLP237 T00330011   
KFSD 192356Z 31009KT 10SM CLR 06/02 A3018 RMK AO2 SLP231 T00610017 10111 20061 55002
KFSD 192256Z 32011KT 10SM FEW025 SCT250 08/03 A3017 RMK AO2 SLP229 T00830033
KFSD 192156Z 34010KT 10SM FEW025 SCT250 10/03 A3019 RMK AO2 SLP233 T01000028
KFSD 192056Z 28007KT 10SM SCT250 11/00 A3018 RMK AO2 SLP230 T01110000 58011 
KFSD 191956Z 29004KT 10SM FEW150 SCT250 11/02 A3019 RMK AO2 SLP233 T01060022
KFSD 191856Z 30006KT 10SM SCT150 09/02 A3021 RMK AO2 SLP242 T00940017   
KFSD 191756Z VRB04KT 10SM FEW080 FEW250 08/02 A3022 RMK AO2 SLP243 T00780017 10078 20000 51004  
KFSD 191656Z 25005KT 10SM FEW080 FEW250 07/01 A3022 RMK AO2 SLP244 T00670011
KFSD 191556Z 25006KT 10SM FEW080 SCT250 06/00 A3021 RMK AO2 SLP243 T00560000
KFSD 191456Z VRB05KT 10SM SCT250 04/M01 A3020 RMK AO2 SLP241 T00441011  
KFSD 191356Z 20005KT 10SM FEW090 SCT250 02/M02 A3019 RMK AO2 SLP237 T00221017   
KFSD 191256Z 21005KT 10SM FEW150 FEW250 00/M03 A3020 RMK AO2 SLP240 T00001033   
KFSD 191219Z 22006KT 10SM FEW250 01/M03 A3020 RMK AO2 T00061033
KFSD 191156Z 21006KT 10SM SCT250 01/M03 A3019 RMK AO2 SLP237 T00061033 10022 20006  
KFSD 191056Z VRB03KT 10SM SCT250 01/M03 A3019 RMK AO2 SLP236 T00061033 $
KFSD 190956Z 20009KT 10SM FEW150 BKN250 01/M03 A3019 RMK AO2 SLP236 T00111033 $ 
KFSD 190856Z AUTO 19007KT 10SM SCT110 01/M03 A3019 RMK AO2 SLP238 T00111033 $   
KFSD 190756Z AUTO 20009KT 10SM CLR 02/M03 A3020 RMK AO2 SLP240 T00171033 $  
KFSD 190656Z AUTO 20010KT 10SM 02/M04 A3021 RMK AO2 SLP242 T00171039 $